Edgerton, Kansas
Current Conditions -  °F | °C
As of 4:53 PM on Wednesday 26 Nov 2014 (Local Time) from KIXD Reporting Station
Overcast Overcast  
Wind Chill: 21°   Ceiling: 2100
Heat Index: 33°   Visibility: 10mi
Dew Point: 25°   Wind: 22mph
Humidity: 72%   Direction: 320°NW
Pressure: 30.18"   Gusts: 32mph
Location:  38.76°N, 95.01°W
Report Text: KIXD 262253Z 32019G28KT 10SM OVC021 01/M04 A3018 RMK AO2 PK WND 31029/2233 SLP227 T00061039
Loading
Personal Weather Stations






























Interactive Weather Map New forecast layout! Learn more

10-Day Weather Forecast

Advertisements
Track Severe Weather on mobile